Time;durP1;ratioP1;P1;durP2;ratioP2;P2;SDS_P1;SDS_P2;PMS_P1;PMS_P2;Temp;Humidity;BMP_temperature;BMP_pressure;BME280_temperature;BME280_humidity;BME280_pressure;Samples;Min_cycle;Max_cycle;Signal;HPM_P1;HPM_P2
2022/09/17 00:05:12;;;;;;;11.45;1.10;;;11.80;99.90;;;;;;6099453;23;20011;-80
2022/09/17 00:08:08;;;;;;;7.85;0.77;;;11.70;99.90;;;;;;6054218;23;20007;-78
2022/09/17 00:13:55;;;;;;;10.05;1.48;;;11.50;99.90;;;;;;6077532;23;20439;-79
2022/09/17 00:16:51;;;;;;;7.97;1.08;;;11.50;99.90;;;;;;6051647;23;20003;-81
2022/09/17 00:19:33;;;;;;;13.32;1.00;;;11.40;99.90;;;;;;6079955;23;20021;-80
2022/09/17 00:22:20;;;;;;;7.22;1.17;;;11.30;99.90;;;;;;6055472;23;20017;-79
2022/09/17 00:26:05;;;;;;;11.65;1.00;;;11.20;99.90;;;;;;6081053;23;20006;-80
2022/09/17 00:28:48;;;;;;;11.57;1.45;;;11.20;99.90;;;;;;6055037;23;20021;-78
2022/09/17 00:31:42;;;;;;;7.68;0.77;;;11.10;99.90;;;;;;6077857;23;20010;-80
2022/09/17 00:34:39;;;;;;;7.07;0.70;;;11.10;99.90;;;;;;6077366;23;20020;-79
2022/09/17 00:37:31;;;;;;;9.95;0.73;;;11.10;99.90;;;;;;6051699;23;20015;-79
2022/09/17 00:40:19;;;;;;;8.68;0.95;;;11.10;99.90;;;;;;6077642;23;20011;-82
2022/09/17 00:43:30;;;;;;;7.72;0.70;;;11.10;99.90;;;;;;6074794;23;20138;-80
2022/09/17 00:47:02;;;;;;;6.80;0.60;;;11.10;99.90;;;;;;6054199;23;20025;-81
2022/09/17 00:49:52;;;;;;;8.88;1.25;;;11.00;99.90;;;;;;6080633;23;20010;-83
2022/09/17 00:53:07;;;;;;;9.75;1.10;;;11.00;99.90;;;;;;6031549;23;20002;-82
2022/09/17 01:03:35;;;;;;;15.85;0.80;;;11.10;99.90;;;;;;6055487;23;20034;-81
2022/09/17 01:07:23;;;;;;;;;;;;;;;;;;;;;
2022/09/17 01:11:02;;;;;;;7.55;0.70;;;11.20;99.90;;;;;;6111795;23;20017;-81
2022/09/17 01:14:27;;;;;;;7.57;0.60;;;11.10;99.90;;;;;;6075109;23;20003;-81
2022/09/17 01:17:46;;;;;;;7.25;0.60;;;11.10;99.90;;;;;;6128922;23;20002;-83
2022/09/17 01:21:27;;;;;;;7.20;0.60;;;11.10;99.90;;;;;;6118909;23;20114;-81
2022/09/17 01:28:41;;;;;;;10.68;1.27;;;11.10;99.90;;;;;;6141514;23;20075;-83
2022/09/17 01:35:50;;;;;;;9.15;0.70;;;11.00;99.90;;;;;;6145038;23;20140;-81
2022/09/17 01:39:22;;;;;;;10.38;1.42;;;10.90;99.90;;;;;;6089682;23;20014;-82
2022/09/17 01:42:44;;;;;;;8.20;0.70;;;10.90;99.90;;;;;;6084995;23;20018;-82
2022/09/17 02:02:43;;;;;;;5.18;1.02;;;10.90;99.90;;;;;;6086253;23;20010;-81
2022/09/17 02:06:07;;;;;;;3.53;0.32;;;10.90;99.90;;;;;;6104124;23;20350;-81
2022/09/17 02:09:36;;;;;;;2.05;0.45;;;10.80;99.90;;;;;;6122990;23;20017;-83
2022/09/17 02:13:11;;;;;;;4.55;0.70;;;10.70;99.90;;;;;;6086947;23;20007;-81
2022/09/17 02:19:48;;;;;;;4.90;0.40;;;10.70;99.90;;;;;;6143322;23;19931;-82
2022/09/17 02:26:30;;;;;;;5.00;0.65;;;10.60;99.90;;;;;;6015966;23;20014;-82
2022/09/17 02:29:52;;;;;;;7.85;0.65;;;10.60;99.90;;;;;;6073638;23;20013;-81
2022/09/17 02:33:49;;;;;;;3.97;0.52;;;10.60;99.90;;;;;;6083656;23;20023;-78
2022/09/17 02:40:17;;;;;;;5.57;0.50;;;10.50;99.90;;;;;;6001803;23;20041;-80
2022/09/17 02:43:14;;;;;;;;;;;10.50;99.90;;;;;;6076724;23;20018;-80
2022/09/17 02:46:40;;;;;;;;;;;10.60;99.90;;;;;;6039721;23;19913;-81
2022/09/17 02:49:21;;;;;;;6.60;0.75;;;10.70;99.90;;;;;;6009910;23;20246;-81
2022/09/17 02:52:33;;;;;;;7.10;0.90;;;10.70;99.90;;;;;;6064257;23;20003;-81
2022/09/17 02:55:32;;;;;;;6.05;0.70;;;10.60;99.90;;;;;;6086883;23;20337;-80
2022/09/17 02:58:34;;;;;;;;;;;10.50;99.90;;;;;;6075917;23;20011;-80
2022/09/17 03:01:37;;;;;;;7.88;0.65;;;10.40;99.90;;;;;;6053687;23;19971;-80
2022/09/17 03:05:07;;;;;;;;;;;;;;;;;;;;;
2022/09/17 03:07:51;;;;;;;10.15;0.95;;;10.30;99.90;;;;;;6053774;23;20011;-80
2022/09/17 03:10:50;;;;;;;8.90;1.00;;;10.30;99.90;;;;;;6053220;23;20021;-80
2022/09/17 03:17:14;;;;;;;8.15;0.65;;;10.20;99.90;;;;;;6054949;23;20019;-80
2022/09/17 03:19:55;;;;;;;3.47;0.40;;;10.20;99.90;;;;;;6028235;23;20007;-80
2022/09/17 03:23:00;;;;;;;8.93;0.75;;;10.10;99.90;;;;;;6054115;23;20012;-80
2022/09/17 03:25:47;;;;;;;6.13;0.60;;;10.10;99.90;;;;;;6053050;23;20011;-80
2022/09/17 03:28:43;;;;;;;6.15;0.85;;;10.00;99.90;;;;;;6031305;23;20026;-81
2022/09/17 03:31:45;;;;;;;4.65;0.43;;;9.90;99.90;;;;;;6032216;23;20007;-80
2022/09/17 03:34:47;;;;;;;7.75;0.45;;;9.90;99.90;;;;;;6073822;23;20030;-81
2022/09/17 03:38:08;;;;;;;4.90;0.50;;;9.80;99.90;;;;;;6029945;23;20019;-81
2022/09/17 03:41:44;;;;;;;;;;;;;;;;;;;;;
2022/09/17 03:44:25;;;;;;;5.18;0.82;;;9.70;99.90;;;;;;6073319;23;20013;-81
2022/09/17 03:47:52;;;;;;;3.78;0.45;;;9.70;99.90;;;;;;6067423;23;20064;-81
2022/09/17 03:50:45;;;;;;;4.28;0.47;;;9.70;99.90;;;;;;6050431;23;20002;-81
2022/09/17 03:53:15;;;;;;;5.05;0.43;;;9.70;99.90;;;;;;6066785;23;20023;-79
2022/09/17 03:55:56;;;;;;;5.55;0.70;;;9.70;99.90;;;;;;6071060;23;20010;-80
2022/09/17 04:02:34;;;;;;;6.57;0.55;;;9.90;99.90;;;;;;6083012;23;20006;-81
2022/09/17 04:05:27;;;;;;;7.65;0.50;;;10.00;99.90;;;;;;6066272;23;20005;-80
2022/09/17 04:08:37;;;;;;;3.15;0.77;;;10.00;99.90;;;;;;6116775;23;20003;-80
2022/09/17 04:11:31;;;;;;;6.53;0.77;;;10.10;99.90;;;;;;6079628;23;20010;-81
2022/09/17 04:14:39;;;;;;;3.67;0.35;;;10.10;99.90;;;;;;6102522;23;20011;-81
2022/09/17 04:17:11;;;;;;;5.47;0.45;;;10.00;99.90;;;;;;6101455;23;20010;-81
2022/09/17 04:20:49;;;;;;;5.10;0.40;;;9.90;99.90;;;;;;6080268;23;20002;-81
2022/09/17 04:25:10;;;;;;;3.88;0.40;;;9.90;99.90;;;;;;6121651;23;20036;-81
2022/09/17 04:28:22;;;;;;;2.80;0.55;;;9.80;99.90;;;;;;6108874;23;20008;-80
2022/09/17 04:31:39;;;;;;;4.78;0.40;;;9.70;99.90;;;;;;6087818;23;20002;-81
2022/09/17 04:43:26;;;;;;;5.13;0.40;;;9.40;99.90;;;;;;6048987;23;20252;-81
2022/09/17 04:46:35;;;;;;;4.05;0.57;;;9.30;99.90;;;;;;5988282;23;20014;-81
2022/09/17 04:50:24;;;;;;;;;;;;;;;;;;;;;
2022/09/17 05:01:49;;;;;;;5.22;0.32;;;9.10;99.90;;;;;;6049673;23;20023;-80
2022/09/17 05:05:02;;;;;;;;;;;;;;;;;;;;;
2022/09/17 05:16:46;;;;;;;5.30;0.52;;;9.10;99.90;;;;;;6126001;23;20018;-81
2022/09/17 05:20:35;;;;;;;2.58;0.38;;;9.10;99.90;;;;;;6079603;23;20018;-81
2022/09/17 05:24:24;;;;;;;4.97;0.40;;;9.10;99.90;;;;;;6133583;23;20342;-81
2022/09/17 05:30:44;;;;;;;5.15;0.63;;;9.10;99.90;;;;;;6096192;23;20012;-81
2022/09/17 05:38:22;;;;;;;9.80;0.80;;;9.00;99.90;;;;;;6142422;23;20010;-82
2022/09/17 05:42:36;;;;;;;6.63;1.33;;;9.00;99.90;;;;;;6110101;23;20010;-81
2022/09/17 05:51:44;;;;;;;4.15;0.60;;;9.00;99.90;;;;;;6103823;23;20061;-81
2022/09/17 05:55:02;;;;;;;2.97;0.38;;;9.00;99.90;;;;;;6000579;23;20003;-81
2022/09/17 05:58:36;;;;;;;4.88;0.70;;;9.10;99.90;;;;;;6038872;23;20003;-80
2022/09/17 06:01:22;;;;;;;3.97;0.50;;;9.10;99.90;;;;;;6013834;23;20030;-81
2022/09/17 06:05:00;;;;;;;9.95;1.30;;;9.10;99.90;;;;;;6076848;23;20014;-80
2022/09/17 06:08:25;;;;;;;9.45;0.80;;;9.10;99.90;;;;;;6049240;23;20367;-81
2022/09/17 06:14:53;;;;;;;3.80;0.40;;;9.20;99.90;;;;;;6097930;23;20038;-81
2022/09/17 06:17:53;;;;;;;4.00;0.40;;;9.10;99.90;;;;;;6097402;23;20005;-80
2022/09/17 06:21:23;;;;;;;6.38;0.73;;;9.10;99.90;;;;;;6097318;23;20017;-81
2022/09/17 06:24:39;;;;;;;7.18;1.10;;;9.10;99.90;;;;;;6096944;23;20358;-80
2022/09/17 06:27:41;;;;;;;4.28;0.40;;;9.20;99.90;;;;;;6100013;23;20010;-81
2022/09/17 06:30:53;;;;;;;3.97;0.52;;;9.50;99.90;;;;;;6058423;23;20458;-81
2022/09/17 06:33:43;;;;;;;4.47;0.50;;;9.70;99.90;;;;;;6073532;23;20025;-80
2022/09/17 06:36:50;;;;;;;5.32;0.70;;;9.80;99.90;;;;;;6097596;23;20010;-78
2022/09/17 06:40:24;;;;;;;4.88;0.40;;;10.00;99.90;;;;;;6074933;23;20469;-81
2022/09/17 06:43:14;;;;;;;6.70;0.45;;;10.20;99.90;;;;;;6100882;23;20358;-80
2022/09/17 06:50:27;;;;;;;4.28;0.30;;;10.60;99.90;;;;;;5058385;28;20040;-80
2022/09/17 06:53:03;;;;;;;5.15;0.40;;;10.70;99.90;;;;;;5054572;28;20039;-78
2022/09/17 06:55:42;;;;;;;5.32;0.35;;;10.80;99.90;;;;;;5089941;28;20043;-78
2022/09/17 07:01:22;;;;;;;8.85;0.70;;;11.00;99.90;;;;;;5073772;28;20042;-79
2022/09/17 07:04:10;;;;;;;6.07;0.60;;;11.10;99.90;;;;;;5078724;28;20389;-79
2022/09/17 07:07:23;;;;;;;4.63;0.45;;;11.20;99.90;;;;;;5071016;28;20032;-77
2022/09/17 07:10:55;;;;;;;5.40;0.50;;;11.20;99.90;;;;;;5054490;28;20036;-78
2022/09/17 07:13:33;;;;;;;9.05;1.67;;;11.20;99.90;;;;;;5010538;28;20045;-78
2022/09/17 07:16:16;;;;;;;4.43;0.50;;;11.20;99.90;;;;;;5049640;28;20578;-79
2022/09/17 07:18:45;;;;;;;8.40;1.10;;;11.30;99.90;;;;;;5016430;28;20144;-79
2022/09/17 07:21:40;;;;;;;4.88;0.45;;;11.40;99.90;;;;;;5055013;28;20048;-78
2022/09/17 07:24:16;;;;;;;2.33;0.47;;;11.60;99.90;;;;;;5046953;28;20044;-80
2022/09/17 07:26:50;;;;;;;5.28;1.05;;;11.80;99.90;;;;;;5052041;28;20107;-78
2022/09/17 07:32:41;;;;;;;7.00;1.27;;;12.10;99.90;;;;;;5055212;28;20048;-78
2022/09/17 07:35:18;;;;;;;2.75;0.40;;;12.20;99.90;;;;;;5044260;28;20045;-78
2022/09/17 07:37:47;;;;;;;5.10;0.88;;;12.20;99.90;;;;;;5029573;28;20036;-80
2022/09/17 07:40:25;;;;;;;6.35;0.65;;;12.20;99.90;;;;;;5048667;28;20059;-78
2022/09/17 07:42:53;;;;;;;6.45;0.85;;;12.20;99.90;;;;;;5093314;28;20028;-79
2022/09/17 07:45:19;;;;;;;3.05;0.50;;;12.30;99.90;;;;;;5089544;28;20144;-78
2022/09/17 07:47:46;;;;;;;2.85;0.40;;;12.40;99.90;;;;;;5072014;28;20032;-79
2022/09/17 07:50:12;;;;;;;7.40;0.50;;;12.60;99.90;;;;;;5071654;28;20028;-79
2022/09/17 07:52:45;;;;;;;3.65;0.40;;;12.80;99.90;;;;;;5089053;28;20028;-79
2022/09/17 07:55:15;;;;;;;5.68;0.88;;;12.90;99.90;;;;;;5112226;28;20035;-80
2022/09/17 07:57:51;;;;;;;5.72;0.60;;;13.00;99.90;;;;;;5065591;28;20497;-81
2022/09/17 08:00:21;;;;;;;5.68;0.50;;;13.10;99.90;;;;;;5074004;28;20029;-80
2022/09/17 08:03:06;;;;;;;8.45;0.47;;;13.30;99.90;;;;;;5034816;28;20060;-79
2022/09/17 08:05:40;;;;;;;4.50;0.38;;;13.30;99.90;;;;;;5067904;28;20029;-80
2022/09/17 08:08:33;;;;;;;;;;;;;;;;;;;;;
2022/09/17 08:11:17;;;;;;;6.10;0.50;;;13.60;99.90;;;;;;5076837;28;20032;-81
2022/09/17 08:14:32;;;;;;;6.28;0.55;;;13.70;99.90;;;;;;5052255;28;20047;-80
2022/09/17 08:17:10;;;;;;;2.92;0.30;;;13.80;99.90;;;;;;5075389;28;20032;-78
2022/09/17 08:20:00;;;;;;;;;;;;;;;;;;;;;
2022/09/17 08:22:51;;;;;;;6.85;0.50;;;14.00;99.90;;;;;;5070471;28;20477;-78
2022/09/17 08:25:23;;;;;;;5.70;0.50;;;14.10;99.90;;;;;;5052334;28;20381;-77
2022/09/17 09:03:15;;;;;;;5.07;0.40;;;15.50;99.90;;;;;;5080447;28;20040;-79
2022/09/17 09:11:02;;;;;;;2.95;0.30;;;15.70;99.90;;;;;;5040395;28;20044;-80
2022/09/17 09:14:10;;;;;;;3.95;0.60;;;15.80;99.90;;;;;;5041850;28;20039;-80
2022/09/17 09:31:44;;;;;;;;;;;;;;;;;;;;;
2022/09/17 09:35:43;;;;;;;2.35;0.30;;;16.00;99.90;;;;;;5403776;22;20045;-79
2022/09/17 09:38:55;;;;;;;4.30;0.52;;;16.20;99.90;;;;;;4918192;28;20538;-79
2022/09/17 09:42:40;;;;;;;3.92;0.30;;;16.40;99.90;;;;;;5019086;28;20032;-80
2022/09/17 09:50:17;;;;;;;2.90;0.30;;;16.70;99.90;;;;;;4950865;28;20035;-80
2022/09/17 10:41:49;;;;;;;;;;;;;;;;;;;;;
2022/09/17 11:16:28;;;;;;;1.23;0.20;;;16.10;99.90;;;;;;5197174;22;19921;-82
2022/09/17 11:19:44;;;;;;;3.15;0.22;;;16.90;99.90;;;;;;5011432;28;20029;-82
2022/09/17 11:39:01;;;;;;;7.00;0.55;;;20.00;99.90;;;;;;4978927;28;20031;-83
2022/09/17 11:49:32;;;;;;;5.80;0.57;;;20.90;99.90;;;;;;4914799;29;20055;-83
2022/09/17 12:02:20;;;;;;;5.53;0.63;;;21.70;98.30;;;;;;4545508;22;20053;-83
2022/09/17 12:06:12;;;;;;;3.05;0.70;;;21.40;97.60;;;;;;5022438;28;20042;-83
2022/09/17 12:09:28;;;;;;;7.18;1.20;;;20.80;95.90;;;;;;4999193;28;20049;-83
2022/09/17 12:12:28;;;;;;;3.13;0.40;;;19.40;95.90;;;;;;5008969;28;20049;-83
2022/09/17 12:15:57;;;;;;;2.92;0.43;;;18.20;97.50;;;;;;4996432;28;20044;-84
2022/09/17 12:22:48;;;;;;;;;;;;;;;;;;;;;
2022/09/17 12:25:44;;;;;;;4.07;0.47;;;14.90;99.90;;;;;;5024839;28;20033;-84
2022/09/17 12:59:19;;;;;;;2.63;0.50;;;20.90;93.00;;;;;;5205792;23;20038;-84
2022/09/17 13:03:03;;;;;;;4.25;1.00;;;20.10;93.50;;;;;;4965272;28;20031;-86
2022/09/17 13:05:53;;;;;;;3.75;0.68;;;19.30;94.30;;;;;;4879800;29;20036;-82
2022/09/17 13:08:50;;;;;;;6.38;1.10;;;19.90;93.90;;;;;;4900839;29;20031;-84
2022/09/17 13:59:52;;;;;;;;;;;;;;;;;;;;;
2022/09/17 14:07:25;;;;;;;4.20;0.70;;;19.50;82.10;;;;;;4928746;29;20050;-82
2022/09/17 14:10:10;;;;;;;2.88;0.40;;;18.90;86.00;;;;;;4901453;29;20055;-83
2022/09/17 14:12:40;;;;;;;4.13;0.60;;;18.60;87.50;;;;;;4925567;28;20045;-82
2022/09/17 14:15:42;;;;;;;5.97;0.70;;;18.50;88.30;;;;;;4987699;28;20039;-82
2022/09/17 14:18:27;;;;;;;2.80;0.30;;;18.10;89.20;;;;;;4964568;28;20104;-82
2022/09/17 14:21:13;;;;;;;3.10;0.40;;;17.60;90.10;;;;;;4968209;28;20026;-83
2022/09/17 14:23:53;;;;;;;4.55;0.50;;;17.20;90.60;;;;;;4946543;28;20039;-82
2022/09/17 14:26:46;;;;;;;5.28;0.50;;;16.90;91.20;;;;;;4949497;28;20038;-82
2022/09/17 14:29:58;;;;;;;5.07;1.02;;;16.60;91.90;;;;;;4976292;28;20417;-82
2022/09/17 14:37:17;;;;;;;4.05;0.75;;;16.20;93.30;;;;;;4941069;28;20046;-83
2022/09/17 14:40:14;;;;;;;5.40;0.70;;;16.10;93.90;;;;;;4923223;28;20042;-80
2022/09/17 14:44:00;;;;;;;3.47;0.60;;;16.20;93.60;;;;;;4965856;28;20050;-82
2022/09/17 14:47:18;;;;;;;6.95;0.65;;;16.30;93.70;;;;;;4959815;28;20046;-81
2022/09/17 14:50:31;;;;;;;4.15;0.50;;;16.30;93.70;;;;;;4946612;28;20038;-84
2022/09/17 14:58:09;;;;;;;9.45;0.50;;;15.10;98.40;;;;;;4962970;28;20042;-83
2022/09/17 15:15:32;;;;;;;5.68;0.77;;;13.50;99.90;;;;;;4980195;23;20050;-84
2022/09/17 15:18:28;;;;;;;5.05;0.47;;;13.50;99.90;;;;;;4966750;28;20041;-82
2022/09/17 15:21:48;;;;;;;6.47;0.57;;;13.50;99.90;;;;;;4966597;28;20034;-85
2022/09/17 15:24:52;;;;;;;6.63;0.60;;;13.70;99.90;;;;;;4940105;28;20045;-84
2022/09/17 15:27:28;;;;;;;5.43;0.60;;;13.80;99.90;;;;;;4971768;28;20338;-82
2022/09/17 15:29:57;;;;;;;4.18;0.80;;;13.70;99.90;;;;;;4967060;28;20043;-82
2022/09/17 15:32:30;;;;;;;3.00;0.40;;;13.60;99.90;;;;;;4933778;28;20039;-83
2022/09/17 15:35:12;;;;;;;3.00;0.30;;;13.50;99.90;;;;;;4945710;28;20031;-84
2022/09/17 15:38:31;;;;;;;3.90;0.30;;;13.50;99.90;;;;;;4949858;28;20047;-84
2022/09/17 15:42:00;;;;;;;2.40;0.40;;;13.70;99.90;;;;;;4958319;28;20035;-85
2022/09/17 15:45:11;;;;;;;3.83;0.50;;;13.60;99.90;;;;;;4953997;28;20031;-85
2022/09/17 15:52:46;;;;;;;3.85;0.40;;;13.60;99.90;;;;;;4971450;28;20035;-84
2022/09/17 15:56:52;;;;;;;;;;;;;;;;;;;;;
2022/09/17 16:13:48;;;;;;;7.95;0.90;;;13.60;99.90;;;;;;4962626;28;20053;-81
2022/09/17 16:16:23;;;;;;;4.95;0.60;;;13.60;99.90;;;;;;4962953;28;20052;-80
2022/09/17 16:18:50;;;;;;;6.60;0.50;;;13.60;99.90;;;;;;4946861;28;20046;-80
2022/09/17 16:21:18;;;;;;;12.55;0.93;;;13.60;99.90;;;;;;4945291;28;20035;-80
2022/09/17 16:23:45;;;;;;;9.90;1.20;;;13.60;99.90;;;;;;4943441;28;20036;-81
2022/09/17 16:26:17;;;;;;;10.93;1.85;;;13.60;99.90;;;;;;4945742;28;20035;-81
2022/09/17 16:28:53;;;;;;;6.50;0.57;;;13.60;99.90;;;;;;4961366;28;20042;-81
2022/09/17 16:31:20;;;;;;;6.25;0.60;;;13.60;99.90;;;;;;4963498;28;20042;-79
2022/09/17 16:33:46;;;;;;;8.90;0.70;;;13.60;99.90;;;;;;4977087;28;20034;-80
2022/09/17 16:36:16;;;;;;;6.45;0.63;;;13.60;99.90;;;;;;4976984;28;20533;-81
2022/09/17 16:38:43;;;;;;;6.65;0.63;;;13.50;99.90;;;;;;4948312;28;20033;-81
2022/09/17 16:41:12;;;;;;;6.30;0.75;;;13.50;99.90;;;;;;4946224;28;20055;-82
2022/09/17 16:43:39;;;;;;;7.32;1.20;;;13.50;99.90;;;;;;4945115;28;20031;-81
2022/09/17 16:46:13;;;;;;;7.60;1.20;;;13.50;99.90;;;;;;4960684;28;20039;-82
2022/09/17 16:48:43;;;;;;;8.25;0.93;;;13.50;99.90;;;;;;4944008;28;20043;-82
2022/09/17 16:56:51;;;;;;;;;;;;;;;;;;;;;
2022/09/17 17:00:48;;;;;;;9.48;0.70;;;13.50;99.90;;;;;;5078855;23;20141;-85
2022/09/17 17:09:34;;;;;;;9.90;0.70;;;13.40;99.90;;;;;;4931464;23;20048;-84
2022/09/17 17:13:14;;;;;;;5.45;0.60;;;13.40;99.90;;;;;;4952862;28;20115;-83
2022/09/17 17:20:47;;;;;;;11.23;0.80;;;13.50;99.90;;;;;;5000098;28;20514;-84
2022/09/17 17:24:18;;;;;;;8.15;1.55;;;13.50;99.90;;;;;;4982578;28;20053;-83
2022/09/17 17:27:57;;;;;;;12.00;1.48;;;13.40;99.90;;;;;;4931495;28;20402;-83
2022/09/17 17:30:55;;;;;;;11.85;1.55;;;13.40;99.90;;;;;;4951352;28;20530;-83
2022/09/17 17:37:30;;;;;;;6.65;0.80;;;13.30;99.90;;;;;;4951890;28;20050;-82
2022/09/17 17:40:43;;;;;;;7.70;0.82;;;13.20;99.90;;;;;;4955816;28;20057;-84
2022/09/17 17:43:22;;;;;;;5.63;0.60;;;13.20;99.90;;;;;;4977979;28;20030;-83
2022/09/17 17:46:33;;;;;;;5.43;0.80;;;13.10;99.90;;;;;;4979056;28;20403;-83
2022/09/17 17:48:59;;;;;;;7.82;0.50;;;13.10;99.90;;;;;;5015441;28;20034;-82
2022/09/17 17:51:31;;;;;;;7.97;1.30;;;13.10;99.90;;;;;;4960889;28;20046;-83
2022/09/17 17:54:04;;;;;;;4.95;0.52;;;13.10;99.90;;;;;;4990097;28;20503;-81
2022/09/17 17:56:30;;;;;;;2.13;0.38;;;13.10;99.90;;;;;;4961426;28;20034;-82
2022/09/17 17:58:57;;;;;;;6.50;0.70;;;13.00;99.90;;;;;;4978763;28;20034;-81
2022/09/17 18:01:28;;;;;;;8.50;0.70;;;13.00;99.90;;;;;;4961350;28;20023;-82
2022/09/17 18:03:56;;;;;;;5.22;0.98;;;12.90;99.90;;;;;;4983055;28;20395;-82
2022/09/17 18:06:23;;;;;;;6.60;1.00;;;12.80;99.90;;;;;;4986136;28;20045;-81
2022/09/17 18:08:52;;;;;;;7.60;0.73;;;12.80;99.90;;;;;;4986890;28;20102;-80
2022/09/17 18:11:22;;;;;;;6.22;0.75;;;12.70;99.90;;;;;;4984754;28;20042;-81
2022/09/17 18:13:54;;;;;;;4.35;0.57;;;12.70;99.90;;;;;;4992934;28;20503;-82
2022/09/17 18:16:21;;;;;;;5.13;0.60;;;12.70;99.90;;;;;;4992459;28;20041;-81
2022/09/17 18:18:50;;;;;;;5.70;0.40;;;12.70;99.90;;;;;;4962287;28;20034;-82
2022/09/17 18:21:19;;;;;;;7.07;0.47;;;12.70;99.90;;;;;;4961023;28;20045;-81
2022/09/17 18:23:47;;;;;;;7.82;0.50;;;12.70;99.90;;;;;;4989722;28;20038;-81
2022/09/17 18:26:18;;;;;;;4.45;0.38;;;12.70;99.90;;;;;;4978783;28;20034;-80
2022/09/17 18:28:45;;;;;;;3.97;0.80;;;12.70;99.90;;;;;;4996585;28;20035;-82
2022/09/17 18:31:22;;;;;;;7.50;0.52;;;12.70;99.90;;;;;;4980065;28;20243;-83
2022/09/17 18:34:00;;;;;;;3.63;0.52;;;12.70;99.90;;;;;;4986809;28;20061;-83
2022/09/17 18:36:28;;;;;;;3.70;0.63;;;12.70;99.90;;;;;;4992692;28;20369;-83
2022/09/17 18:39:00;;;;;;;4.85;0.55;;;12.70;99.90;;;;;;4991509;28;20033;-82
2022/09/17 18:41:28;;;;;;;6.67;0.80;;;12.70;99.90;;;;;;4986930;28;20394;-83
2022/09/17 18:43:55;;;;;;;6.53;0.60;;;12.60;99.90;;;;;;4997546;28;20034;-84
2022/09/17 18:46:22;;;;;;;4.78;0.52;;;12.60;99.90;;;;;;4981633;28;20049;-82
2022/09/17 18:48:53;;;;;;;2.90;0.30;;;12.60;99.90;;;;;;4996986;28;20034;-82
2022/09/17 18:51:20;;;;;;;3.70;0.30;;;12.60;99.90;;;;;;4989362;28;20034;-81
2022/09/17 18:53:47;;;;;;;3.20;0.50;;;12.50;99.90;;;;;;4988994;28;20391;-81
2022/09/17 18:56:19;;;;;;;2.95;0.40;;;12.50;99.90;;;;;;4984403;28;20042;-83
2022/09/17 18:58:58;;;;;;;4.33;0.80;;;12.50;99.90;;;;;;5009381;23;20034;-78
2022/09/17 19:01:27;;;;;;;6.28;1.60;;;12.40;99.90;;;;;;4997295;28;20289;-78
2022/09/17 19:03:55;;;;;;;5.40;1.08;;;12.40;99.90;;;;;;4982473;28;20030;-79
2022/09/17 19:06:26;;;;;;;2.70;0.50;;;12.30;99.90;;;;;;4995534;28;20351;-79
2022/09/17 19:09:02;;;;;;;3.75;0.60;;;12.20;99.90;;;;;;4971941;28;20031;-80
2022/09/17 19:11:29;;;;;;;3.25;0.60;;;12.10;99.90;;;;;;4994991;28;20027;-80
2022/09/17 19:14:41;;;;;;;;;;;;;;;;;;;;;
2022/09/17 19:50:17;;;;;;;1.63;0.30;;;11.50;99.90;;;;;;5678791;23;20058;-82
2022/09/17 20:04:52;;;;;;;2.85;0.25;;;11.30;99.90;;;;;;5109708;23;20072;-75
2022/09/17 20:54:17;;;;;;;2.88;0.30;;;11.40;99.90;;;;;;4997466;23;20063;-84
2022/09/17 20:56:59;;;;;;;1.65;0.47;;;11.50;99.90;;;;;;4937361;28;20044;-83
2022/09/17 22:05:36;;;;;;;3.55;0.40;;;10.90;99.90;;;;;;6097105;22;4275034;-85
2022/09/17 22:08:08;;;;;;;;;;;10.90;99.90;;;;;;6198511;22;19996;-84
2022/09/17 22:10:46;;;;;;;4.20;0.50;;;10.90;99.90;;;;;;6197665;22;19922;-87
2022/09/17 22:13:31;;;;;;;3.97;0.50;;;10.80;99.90;;;;;;6207168;22;20285;-85
2022/09/17 22:16:09;;;;;;;2.25;0.55;;;10.80;99.90;;;;;;6217056;22;20003;-86
2022/09/17 22:18:45;;;;;;;3.83;0.40;;;10.80;99.90;;;;;;6217011;22;20004;-86
2022/09/17 22:21:24;;;;;;;4.40;0.50;;;10.80;99.90;;;;;;6192269;22;20000;-83
2022/09/17 22:23:59;;;;;;;4.35;0.50;;;10.80;99.90;;;;;;6189097;22;20009;-84
2022/09/17 22:26:46;;;;;;;5.75;1.00;;;10.80;99.90;;;;;;6211755;22;20007;-84
2022/09/17 22:35:09;;;;;;;4.22;0.68;;;10.70;99.90;;;;;;6248662;22;20012;-79
2022/09/17 22:37:55;;;;;;;4.93;0.80;;;10.70;99.90;;;;;;6170797;22;20030;-84
2022/09/17 22:40:29;;;;;;;10.38;0.80;;;10.80;99.90;;;;;;6211414;23;20027;-81
2022/09/17 22:43:10;;;;;;;4.70;0.57;;;10.90;99.90;;;;;;6162130;23;20013;-86
2022/09/17 22:52:30;;;;;;;4.05;0.43;;;10.90;99.90;;;;;;6177868;22;20035;-79
2022/09/17 22:54:59;;;;;;;4.80;0.50;;;10.90;99.90;;;;;;6142643;23;20016;-80
2022/09/17 22:57:27;;;;;;;3.65;0.40;;;10.80;99.90;;;;;;6199116;23;20005;-79
2022/09/17 22:59:53;;;;;;;4.30;0.50;;;10.80;99.90;;;;;;6199084;23;20004;-79
2022/09/17 23:02:20;;;;;;;5.47;0.55;;;10.80;99.90;;;;;;6211783;23;20379;-78
2022/09/17 23:04:46;;;;;;;5.25;0.60;;;10.80;99.90;;;;;;6218955;23;20022;-80
2022/09/17 23:20:04;;;;;;;;;;;;;;;;;;;;;
2022/09/17 23:26:54;;;;;;;6.00;0.90;;;10.80;99.90;;;;;;6166083;23;20269;-80
